Time;durP1;ratioP1;P1;durP2;ratioP2;P2;SDS_P1;SDS_P2;PMS_P1;PMS_P2;Temp;Humidity;BMP_temperature;BMP_pressure;BME280_temperature;BME280_humidity;BME280_pressure;Samples;Min_cycle;Max_cycle;Signal;HPM_P1;HPM_P2
2023/07/17 00:00:41;;;;;;;7.55;5.28;;;;;;;30.13;51.35;98887.84;2110806;27;20127;-82
2023/07/17 00:01:42;;;;;;;5.85;4.60;;;;;;;30.12;50.87;98897.16;2106726;28;20324;-81
2023/07/17 00:02:44;;;;;;;10.85;6.07;;;;;;;30.11;50.91;98885.38;2110212;28;20074;-82
2023/07/17 00:03:45;;;;;;;8.98;4.70;;;;;;;30.11;50.91;98895.50;2111824;27;20055;-82
2023/07/17 00:04:47;;;;;;;8.63;5.45;;;;;;;30.09;51.01;98893.06;2111907;28;20071;-83
2023/07/17 00:05:50;;;;;;;9.20;4.85;;;;;;;30.14;50.68;98900.44;2116139;28;20052;-81
2023/07/17 00:06:51;;;;;;;9.48;3.83;;;;;;;30.15;51.19;98896.63;2112593;27;20047;-82
2023/07/17 00:07:52;;;;;;;9.15;5.43;;;;;;;30.14;51.53;98889.50;2115875;27;20058;-82
2023/07/17 00:08:54;;;;;;;10.80;5.25;;;;;;;30.12;51.33;98886.22;2113816;27;20039;-83
2023/07/17 00:09:55;;;;;;;13.43;5.32;;;;;;;30.13;51.49;98880.47;2106980;28;20056;-83
2023/07/17 00:10:58;;;;;;;12.77;5.93;;;;;;;30.15;51.49;98882.94;2106902;28;20075;-83
2023/07/17 00:11:58;;;;;;;23.55;6.00;;;;;;;30.14;51.74;98881.28;2107976;28;20768;-83
2023/07/17 00:13:00;;;;;;;13.70;6.05;;;;;;;30.13;52.00;98882.38;2108838;28;20136;-82
2023/07/17 00:14:01;;;;;;;8.27;4.82;;;;;;;30.09;51.68;98875.81;2109542;28;22565;-82
2023/07/17 00:15:05;;;;;;;11.50;4.53;;;;;;;30.11;51.99;98877.19;2109718;28;20106;-82
2023/07/17 00:16:06;;;;;;;17.38;5.53;;;;;;;30.09;51.95;98875.81;2108998;28;20069;-82
2023/07/17 00:17:08;;;;;;;15.60;7.18;;;;;;;30.08;51.61;98875.00;2109473;28;20051;-81
2023/07/17 00:18:09;;;;;;;8.40;4.35;;;;;;;30.10;51.77;98872.00;2109881;28;20048;-82
2023/07/17 00:19:10;;;;;;;6.72;4.75;;;;;;;30.10;51.75;98882.94;2107626;28;20111;-83
2023/07/17 00:20:11;;;;;;;14.50;5.95;;;;;;;30.13;51.57;98876.91;2104449;28;20048;-81
2023/07/17 00:21:13;;;;;;;11.50;6.00;;;;;;;30.12;51.15;98873.38;2107333;28;21031;-81
2023/07/17 00:22:14;;;;;;;10.38;5.22;;;;;;;30.08;51.45;98869.53;2108799;28;20100;-81
2023/07/17 00:23:15;;;;;;;16.15;6.03;;;;;;;30.13;51.36;98876.91;2105303;27;20047;-81
2023/07/17 00:24:16;;;;;;;8.73;5.60;;;;;;;30.13;51.56;98882.38;2110981;28;20463;-81
2023/07/17 00:25:17;;;;;;;11.75;5.88;;;;;;;30.13;51.38;98877.72;2106326;27;20127;-81
2023/07/17 00:26:19;;;;;;;10.68;5.82;;;;;;;30.12;51.37;98884.31;2101961;28;20048;-81
2023/07/17 00:27:20;;;;;;;7.97;4.60;;;;;;;30.12;51.38;98881.56;2107774;28;20058;-81
2023/07/17 00:28:22;;;;;;;12.38;5.25;;;;;;;30.13;51.41;98885.13;2112551;27;20047;-82
2023/07/17 00:29:25;;;;;;;18.17;6.70;;;;;;;30.11;51.44;98879.09;2105247;28;20048;-81
2023/07/17 00:30:28;;;;;;;13.05;5.28;;;;;;;30.11;51.53;98876.34;2102495;28;21081;-82
2023/07/17 00:31:29;;;;;;;11.73;5.15;;;;;;;30.09;51.89;98870.34;2103178;28;20079;-81
2023/07/17 00:32:30;;;;;;;6.40;4.68;;;;;;;30.10;51.43;98872.00;2104238;28;20044;-81
2023/07/17 00:33:31;;;;;;;10.40;5.50;;;;;;;30.10;51.77;98863.78;2103115;28;20069;-81
2023/07/17 00:34:33;;;;;;;12.35;4.97;;;;;;;30.08;51.66;98853.09;2103042;28;20052;-81
2023/07/17 00:35:34;;;;;;;16.80;5.43;;;;;;;30.09;51.94;98853.94;2112889;27;20171;-82
2023/07/17 00:36:35;;;;;;;12.13;5.40;;;;;;;30.06;52.10;98858.88;2101781;28;20185;-81
2023/07/17 00:37:36;;;;;;;9.13;5.90;;;;;;;30.05;51.84;98857.22;2100345;28;20069;-81
2023/07/17 00:38:38;;;;;;;11.07;5.45;;;;;;;30.04;52.26;98858.31;2105261;28;20052;-83
2023/07/17 00:39:39;;;;;;;11.52;6.03;;;;;;;30.04;52.07;98858.31;2098255;28;20051;-81
2023/07/17 00:40:40;;;;;;;11.10;5.70;;;;;;;30.04;52.03;98855.59;2102917;28;20032;-81
2023/07/17 00:41:41;;;;;;;15.27;5.72;;;;;;;30.04;51.81;98862.97;2101256;28;20056;-80
2023/07/17 00:42:43;;;;;;;11.90;5.03;;;;;;;30.03;51.41;98856.69;2100350;28;20037;-80
2023/07/17 00:43:44;;;;;;;7.38;4.63;;;;;;;30.07;50.59;98859.69;2102418;28;20051;-80
2023/07/17 00:44:46;;;;;;;10.60;4.55;;;;;;;30.08;51.45;98865.97;2101658;28;20056;-81
2023/07/17 00:45:48;;;;;;;16.25;5.15;;;;;;;30.06;51.01;98869.81;2102900;28;20059;-80
2023/07/17 00:46:52;;;;;;;10.10;4.88;;;;;;;30.05;51.35;98867.34;2102034;28;20562;-80
2023/07/17 00:47:53;;;;;;;12.57;5.70;;;;;;;30.03;51.77;98877.72;2103983;28;20099;-81
2023/07/17 00:48:55;;;;;;;11.85;6.15;;;;;;;30.04;51.77;98871.19;2109807;27;20075;-80
2023/07/17 00:49:56;;;;;;;9.45;6.10;;;;;;;30.06;51.34;98872.53;2110920;28;20395;-80
2023/07/17 00:50:58;;;;;;;10.63;5.55;;;;;;;30.04;52.06;98868.44;2110485;27;20051;-81
2023/07/17 00:51:59;;;;;;;20.73;5.85;;;;;;;30.04;51.55;98863.78;2110761;28;20455;-81
2023/07/17 00:53:02;;;;;;;11.55;5.78;;;;;;;30.06;51.30;98861.59;2109498;28;20126;-81
2023/07/17 00:54:03;;;;;;;12.50;5.47;;;;;;;30.04;51.44;98862.97;2110617;28;20115;-81
2023/07/17 00:55:06;;;;;;;10.77;5.95;;;;;;;30.04;51.50;98850.09;2109684;27;20040;-80
2023/07/17 00:56:07;;;;;;;9.75;5.70;;;;;;;30.06;50.87;98856.13;2108108;28;20051;-82
2023/07/17 00:57:11;;;;;;;8.93;4.57;;;;;;;30.03;50.89;98853.94;2110894;28;20047;-82
2023/07/17 00:58:13;;;;;;;11.25;4.82;;;;;;;30.04;51.07;98850.09;2105188;28;20719;-81
2023/07/17 00:59:15;;;;;;;9.23;5.20;;;;;;;30.07;51.55;98854.22;2099423;28;20047;-82
2023/07/17 01:00:18;;;;;;;11.32;5.18;;;;;;;30.05;51.60;98851.75;2100354;28;20052;-82
2023/07/17 01:01:22;;;;;;;10.80;5.45;;;;;;;30.03;50.57;98851.22;2101776;28;20194;-81
2023/07/17 01:02:24;;;;;;;8.88;5.35;;;;;;;30.04;51.22;98855.59;2101523;28;20048;-81
2023/07/17 01:03:26;;;;;;;15.38;5.68;;;;;;;30.06;51.28;98860.75;2106067;28;20063;-81
2023/07/17 01:04:27;;;;;;;13.80;5.80;;;;;;;30.05;51.40;98865.41;2103682;28;20051;-81
2023/07/17 01:05:28;;;;;;;9.75;6.05;;;;;;;30.04;50.98;98863.78;2101660;28;20051;-81
2023/07/17 01:06:30;;;;;;;8.75;4.95;;;;;;;30.03;51.54;98856.69;2103948;28;20068;-81
2023/07/17 01:07:32;;;;;;;10.73;4.82;;;;;;;30.03;51.32;98862.16;2108573;28;20658;-81
2023/07/17 01:08:33;;;;;;;11.30;5.50;;;;;;;30.04;51.55;98857.50;2109038;27;20685;-82
2023/07/17 01:09:35;;;;;;;8.48;4.97;;;;;;;30.02;51.15;98860.50;2112307;28;20044;-81
2023/07/17 01:10:36;;;;;;;10.45;5.45;;;;;;;30.05;51.32;98859.13;2111362;28;20150;-81
2023/07/17 01:11:38;;;;;;;8.73;5.45;;;;;;;30.07;51.43;98859.69;2113470;28;20062;-82
2023/07/17 01:12:39;;;;;;;10.70;6.30;;;;;;;30.05;51.91;98859.94;2111464;28;20108;-82
2023/07/17 01:13:44;;;;;;;13.25;6.00;;;;;;;30.06;51.66;98847.94;2109816;28;20120;-81
2023/07/17 01:14:45;;;;;;;7.05;5.60;;;;;;;30.06;51.10;98860.75;2100862;28;20052;-81
2023/07/17 01:15:47;;;;;;;11.07;5.00;;;;;;;30.04;51.12;98852.84;2108965;28;20049;-82
2023/07/17 01:16:49;;;;;;;10.75;5.03;;;;;;;30.06;51.67;98855.28;2109715;28;20044;-81
2023/07/17 01:17:51;;;;;;;10.88;4.85;;;;;;;30.06;51.57;98858.03;2108909;27;20050;-82
2023/07/17 01:18:52;;;;;;;9.98;5.43;;;;;;;30.03;51.08;98850.38;2102833;28;20602;-81
2023/07/17 01:19:53;;;;;;;14.23;5.03;;;;;;;30.01;51.41;98850.66;2108825;28;20046;-81
2023/07/17 01:20:54;;;;;;;14.95;5.53;;;;;;;29.97;50.66;98849.56;2110357;27;20620;-81
2023/07/17 01:21:59;;;;;;;7.18;5.05;;;;;;;29.97;51.76;98840.53;2104562;28;20044;-81
2023/07/17 01:23:03;;;;;;;9.57;4.70;;;;;;;29.96;51.83;98845.19;2103464;28;20138;-81
2023/07/17 01:24:05;;;;;;;9.60;4.75;;;;;;;29.99;51.72;98841.09;2092712;28;20056;-81
2023/07/17 01:25:07;;;;;;;10.43;5.55;;;;;;;29.99;52.01;98844.63;2099584;28;20484;-82
2023/07/17 01:26:13;;;;;;;13.38;5.03;;;;;;;29.96;52.02;98844.38;2103658;28;20039;-81
2023/07/17 01:27:14;;;;;;;8.63;6.15;;;;;;;29.95;52.06;98849.03;2108848;28;20043;-83
2023/07/17 01:28:15;;;;;;;8.70;4.85;;;;;;;29.97;51.72;98846.81;2105863;28;20040;-81
2023/07/17 01:29:16;;;;;;;13.13;5.68;;;;;;;29.95;52.03;98854.50;2100369;28;20541;-81
2023/07/17 01:30:17;;;;;;;11.52;5.88;;;;;;;29.94;52.21;98857.50;2102867;28;20067;-82
2023/07/17 01:31:19;;;;;;;13.60;6.35;;;;;;;29.93;52.01;98861.34;2101050;28;20044;-81
2023/07/17 01:32:20;;;;;;;13.90;5.22;;;;;;;29.93;52.07;98862.16;2100860;28;20036;-81
2023/07/17 01:33:22;;;;;;;12.07;6.20;;;;;;;29.91;51.81;98864.31;2108300;28;20035;-82
2023/07/17 01:34:23;;;;;;;8.32;4.93;;;;;;;29.95;51.82;98859.13;2110089;28;20065;-81
2023/07/17 01:35:25;;;;;;;11.90;5.30;;;;;;;29.95;51.48;98853.66;2110129;28;20066;-81
2023/07/17 01:36:26;;;;;;;11.55;5.38;;;;;;;29.96;51.55;98858.88;2111060;28;20067;-81
2023/07/17 01:37:28;;;;;;;15.65;6.05;;;;;;;29.95;51.64;98854.50;2110296;28;20135;-80
2023/07/17 01:38:30;;;;;;;12.90;6.25;;;;;;;29.94;51.75;98858.31;2110705;28;20612;-81
2023/07/17 01:39:32;;;;;;;11.55;4.80;;;;;;;29.95;51.98;98854.50;2103205;28;20044;-81
2023/07/17 01:40:33;;;;;;;12.82;5.90;;;;;;;29.94;51.86;98852.84;2104976;28;20048;-81
2023/07/17 01:41:35;;;;;;;10.15;5.32;;;;;;;29.90;52.05;98850.94;2111615;28;20131;-81
2023/07/17 01:42:36;;;;;;;7.13;4.88;;;;;;;29.94;52.08;98854.75;2109544;28;20062;-82
2023/07/17 01:43:37;;;;;;;8.80;4.57;;;;;;;29.95;52.10;98859.97;2103505;28;20526;-82
2023/07/17 01:44:39;;;;;;;11.68;5.50;;;;;;;29.91;51.65;98853.38;2109098;28;20097;-81
2023/07/17 01:45:39;;;;;;;10.40;6.00;;;;;;;29.91;51.46;98853.38;2109603;28;20142;-81
2023/07/17 01:46:41;;;;;;;12.05;5.47;;;;;;;29.92;51.90;98849.56;2110767;28;20492;-84
2023/07/17 01:47:42;;;;;;;14.93;6.30;;;;;;;29.90;51.93;98856.41;2107365;28;20095;-82
2023/07/17 01:48:44;;;;;;;13.05;5.50;;;;;;;29.93;51.77;98853.94;2110181;28;20502;-82
2023/07/17 01:49:45;;;;;;;13.95;6.10;;;;;;;29.93;51.91;98867.63;2109473;28;20127;-81
2023/07/17 01:50:48;;;;;;;15.07;6.18;;;;;;;29.90;52.12;98861.88;2107559;28;20258;-82
2023/07/17 01:51:49;;;;;;;9.57;4.95;;;;;;;29.90;52.04;98851.75;2108599;28;20479;-81
2023/07/17 01:52:51;;;;;;;16.70;5.95;;;;;;;29.92;52.06;98860.50;2108947;28;20043;-81
2023/07/17 01:53:53;;;;;;;7.35;4.72;;;;;;;29.91;52.06;98849.84;2109186;28;20131;-81
2023/07/17 01:54:55;;;;;;;11.82;5.10;;;;;;;29.92;51.94;98859.66;2109823;28;20051;-81
2023/07/17 01:55:55;;;;;;;14.27;6.57;;;;;;;29.90;52.27;98859.97;2109737;28;20048;-81
2023/07/17 01:56:57;;;;;;;9.23;4.97;;;;;;;29.91;51.74;98861.59;2106948;28;20063;-80
2023/07/17 01:57:58;;;;;;;9.52;5.57;;;;;;;29.92;51.79;98865.97;2107373;28;20044;-81
2023/07/17 01:59:00;;;;;;;11.98;5.40;;;;;;;29.91;51.71;98864.31;2111009;28;20039;-81
2023/07/17 02:00:02;;;;;;;9.55;5.47;;;;;;;29.92;51.79;98860.50;2110180;27;20043;-81
2023/07/17 02:01:04;;;;;;;8.15;5.53;;;;;;;29.94;51.46;98847.38;2112338;28;20066;-80
2023/07/17 02:02:05;;;;;;;10.65;5.97;;;;;;;29.90;51.60;98846.28;2111464;28;20068;-80
2023/07/17 02:03:07;;;;;;;15.98;5.63;;;;;;;29.83;51.77;98852.00;2109609;28;20052;-82
2023/07/17 02:04:08;;;;;;;13.02;6.70;;;;;;;29.79;51.56;98850.94;2111417;27;20075;-80
2023/07/17 02:05:10;;;;;;;11.43;5.10;;;;;;;29.80;51.84;98851.75;2110230;28;20047;-81
2023/07/17 02:06:11;;;;;;;16.30;5.93;;;;;;;29.77;51.81;98852.28;2111773;27;20040;-82
2023/07/17 02:07:13;;;;;;;12.55;5.03;;;;;;;29.77;51.52;98858.56;2109768;28;20067;-81
2023/07/17 02:08:14;;;;;;;6.80;4.45;;;;;;;29.79;51.64;98856.41;2112240;28;20044;-83
2023/07/17 02:09:17;;;;;;;11.50;5.35;;;;;;;29.80;51.48;98859.94;2110248;28;20036;-81
2023/07/17 02:10:18;;;;;;;7.25;4.00;;;;;;;29.80;51.30;98865.41;2112717;27;20115;-81
2023/07/17 02:11:20;;;;;;;8.35;4.18;;;;;;;29.81;51.40;98867.88;2111686;27;20100;-79
2023/07/17 02:12:21;;;;;;;11.88;5.65;;;;;;;29.84;51.29;98866.53;2113005;28;20051;-82
2023/07/17 02:13:23;;;;;;;10.68;4.32;;;;;;;29.86;51.37;98866.25;2111580;28;20050;-82
2023/07/17 02:14:23;;;;;;;8.27;4.05;;;;;;;29.83;51.04;98860.22;2111122;28;20043;-81
2023/07/17 02:15:25;;;;;;;8.10;4.55;;;;;;;29.80;51.24;98855.28;2108773;28;20071;-82
2023/07/17 02:16:26;;;;;;;13.15;5.32;;;;;;;29.86;51.33;98866.25;2111233;27;20059;-81
2023/07/17 02:17:27;;;;;;;6.88;4.25;;;;;;;29.87;50.92;98862.44;2110627;28;20074;-82
2023/07/17 02:18:33;;;;;;;8.95;4.20;;;;;;;29.86;50.54;98861.59;2108107;28;20100;-80
2023/07/17 02:19:34;;;;;;;4.97;4.22;;;;;;;29.86;50.13;98867.06;2110202;28;20040;-82
2023/07/17 02:20:35;;;;;;;11.15;5.07;;;;;;;29.87;50.52;98865.97;2112040;28;20123;-81
2023/07/17 02:21:36;;;;;;;9.43;4.22;;;;;;;29.87;50.34;98856.97;2110981;28;20055;-82
2023/07/17 02:22:38;;;;;;;10.95;4.18;;;;;;;29.87;50.92;98859.69;2108774;27;20574;-81
2023/07/17 02:23:39;;;;;;;9.32;4.50;;;;;;;29.86;50.84;98864.31;2112373;27;20043;-81
2023/07/17 02:24:42;;;;;;;8.07;4.65;;;;;;;29.89;50.89;98863.78;2111735;28;20043;-82
2023/07/17 02:25:43;;;;;;;7.75;4.75;;;;;;;29.87;50.87;98859.69;2109631;27;20111;-81
2023/07/17 02:26:45;;;;;;;7.65;3.72;;;;;;;29.85;50.89;98854.47;2112259;28;20051;-83
2023/07/17 02:27:46;;;;;;;8.75;4.65;;;;;;;29.87;50.45;98867.91;2112066;27;20140;-80
2023/07/17 02:28:47;;;;;;;14.48;5.38;;;;;;;29.84;50.31;98866.53;2112471;27;20047;-82
2023/07/17 02:29:49;;;;;;;15.77;5.25;;;;;;;29.85;50.62;98865.41;2112091;28;20043;-81
2023/07/17 02:30:50;;;;;;;10.25;5.10;;;;;;;29.86;50.61;98867.06;2110275;27;20490;-81
2023/07/17 02:31:51;;;;;;;8.70;4.65;;;;;;;29.86;50.73;98869.78;2112425;27;20040;-81
2023/07/17 02:32:53;;;;;;;11.65;4.85;;;;;;;29.88;50.24;98864.88;2112290;27;20071;-81
2023/07/17 02:33:55;;;;;;;8.82;5.20;;;;;;;29.87;50.91;98865.16;2110693;28;20051;-82
2023/07/17 02:34:57;;;;;;;8.60;5.80;;;;;;;29.87;50.54;98863.25;2111412;28;20137;-80
2023/07/17 02:35:57;;;;;;;9.68;5.03;;;;;;;29.87;50.78;98871.44;2107057;28;20484;-81
2023/07/17 02:36:59;;;;;;;14.32;4.63;;;;;;;29.86;50.69;98872.53;2110429;27;20039;-82
2023/07/17 02:38:00;;;;;;;9.00;4.57;;;;;;;29.86;50.71;98871.69;2111483;28;20055;-81
2023/07/17 02:39:01;;;;;;;9.18;4.78;;;;;;;29.86;51.03;98878.00;2112023;27;20051;-81
2023/07/17 02:40:10;;;;;;;12.23;5.05;;;;;;;29.87;50.41;98876.09;2112465;28;20206;-81
2023/07/17 02:41:12;;;;;;;7.90;4.25;;;;;;;29.84;50.72;98874.72;2111439;28;20096;-81
2023/07/17 02:42:13;;;;;;;6.85;3.83;;;;;;;29.82;50.72;98872.25;2111455;28;20044;-83
2023/07/17 02:43:15;;;;;;;13.38;4.50;;;;;;;29.84;50.92;98869.25;2111632;28;20510;-81
2023/07/17 02:44:16;;;;;;;7.53;4.90;;;;;;;29.84;51.18;98872.00;2112285;28;20035;-81
2023/07/17 02:45:17;;;;;;;10.00;4.80;;;;;;;29.86;51.06;98877.19;2111948;27;20035;-81
2023/07/17 02:46:18;;;;;;;10.23;4.53;;;;;;;29.86;51.33;98877.19;2109311;28;20096;-80
2023/07/17 02:47:19;;;;;;;6.82;4.13;;;;;;;29.87;50.94;98874.19;2111586;28;20805;-81
2023/07/17 02:48:21;;;;;;;7.43;4.00;;;;;;;29.88;50.83;98864.88;2110106;27;20383;-82
2023/07/17 02:49:22;;;;;;;12.95;5.80;;;;;;;29.87;51.16;98868.72;2110094;27;20044;-81
2023/07/17 02:50:23;;;;;;;8.48;4.53;;;;;;;29.84;51.09;98870.06;2112330;27;20075;-81
2023/07/17 02:51:24;;;;;;;12.32;5.35;;;;;;;29.84;51.15;98861.06;2110993;28;20533;-81
2023/07/17 02:52:28;;;;;;;8.50;5.88;;;;;;;29.83;51.05;98862.94;2108874;27;20040;-81
2023/07/17 02:53:30;;;;;;;8.85;4.60;;;;;;;29.84;51.04;98870.06;2106775;27;20055;-81
2023/07/17 02:54:32;;;;;;;11.00;4.60;;;;;;;29.87;50.83;98862.44;2112293;28;20047;-81
2023/07/17 02:55:36;;;;;;;9.52;5.65;;;;;;;29.81;50.97;98865.16;2111013;27;20138;-81
2023/07/17 02:56:38;;;;;;;12.13;4.45;;;;;;;29.76;50.88;98861.59;2112191;28;20052;-81
2023/07/17 02:57:39;;;;;;;9.07;5.35;;;;;;;29.79;51.67;98863.78;2111270;28;20502;-81
2023/07/17 02:58:42;;;;;;;11.98;5.60;;;;;;;29.82;51.32;98863.22;2112086;28;20059;-82
2023/07/17 02:59:43;;;;;;;8.45;4.90;;;;;;;29.83;51.33;98862.13;2110330;27;20555;-81
2023/07/17 03:00:45;;;;;;;10.65;5.57;;;;;;;29.83;51.45;98862.94;2111893;28;20043;-81
2023/07/17 03:01:47;;;;;;;13.25;5.63;;;;;;;29.82;51.67;98874.97;2110622;27;20054;-81
2023/07/17 03:02:49;;;;;;;13.70;5.07;;;;;;;29.83;51.34;98875.81;2110438;27;20058;-81
2023/07/17 03:03:50;;;;;;;5.50;4.18;;;;;;;29.77;51.23;98871.44;2109894;27;20050;-80
2023/07/17 03:04:52;;;;;;;9.65;5.00;;;;;;;29.79;51.56;98872.81;2100439;28;20095;-82
2023/07/17 03:05:56;;;;;;;11.35;5.10;;;;;;;29.80;51.30;98868.16;2103467;28;20056;-81
2023/07/17 03:06:58;;;;;;;7.05;4.18;;;;;;;29.80;51.35;98865.41;2111216;27;20047;-81
2023/07/17 03:07:58;;;;;;;8.57;4.43;;;;;;;29.85;51.01;98868.16;2111198;28;20044;-81
2023/07/17 03:09:00;;;;;;;11.00;4.90;;;;;;;29.82;51.30;98855.84;2110517;27;20421;-82
2023/07/17 03:10:01;;;;;;;10.40;5.00;;;;;;;29.79;51.02;98861.03;2109038;27;20055;-81
2023/07/17 03:11:05;;;;;;;12.20;4.95;;;;;;;29.75;51.09;98862.66;2110053;28;20559;-83
2023/07/17 03:12:06;;;;;;;17.42;5.40;;;;;;;29.73;51.58;98862.13;2110788;28;20093;-81
2023/07/17 03:13:08;;;;;;;16.67;5.00;;;;;;;29.69;51.50;98869.22;2107037;28;20047;-81
2023/07/17 03:14:09;;;;;;;13.40;5.25;;;;;;;29.68;51.88;98871.16;2111254;28;20101;-82
2023/07/17 03:15:11;;;;;;;7.38;5.40;;;;;;;29.56;51.75;98857.72;2111791;28;21281;-81
2023/07/17 03:16:12;;;;;;;7.97;5.30;;;;;;;29.60;51.81;98863.44;2109558;27;20115;-82
2023/07/17 03:17:14;;;;;;;13.23;5.47;;;;;;;29.60;51.88;98866.19;2110747;28;20065;-81
2023/07/17 03:18:15;;;;;;;13.75;5.60;;;;;;;29.64;51.75;98871.94;2108173;28;20066;-81
2023/07/17 03:19:16;;;;;;;9.50;5.25;;;;;;;29.61;51.94;98874.13;2110097;27;21846;-82
2023/07/17 03:20:18;;;;;;;8.23;5.07;;;;;;;29.61;51.86;98868.66;2110838;28;20582;-81
2023/07/17 03:21:22;;;;;;;13.75;5.25;;;;;;;29.54;52.24;98865.34;2109730;28;20104;-81
2023/07/17 03:22:23;;;;;;;12.70;5.60;;;;;;;29.53;52.14;98874.66;2106237;27;20043;-82
2023/07/17 03:23:25;;;;;;;11.85;5.25;;;;;;;29.53;52.08;98869.19;2110756;27;20047;-80
2023/07/17 03:24:26;;;;;;;10.75;5.88;;;;;;;29.56;51.83;98870.53;2111387;27;20040;-81
2023/07/17 03:25:28;;;;;;;10.70;5.00;;;;;;;29.56;51.81;98865.91;2111776;27;20052;-83
2023/07/17 03:26:30;;;;;;;11.85;5.70;;;;;;;29.57;52.06;98864.81;2108845;28;20041;-82
2023/07/17 03:27:32;;;;;;;12.02;5.90;;;;;;;29.57;51.83;98867.53;2110727;28;20163;-81
2023/07/17 03:28:33;;;;;;;12.90;5.13;;;;;;;29.59;51.55;98873.56;2111925;27;20108;-81
2023/07/17 03:29:35;;;;;;;9.38;4.80;;;;;;;29.64;51.79;98871.94;2111879;28;20415;-81
2023/07/17 03:30:36;;;;;;;10.68;5.65;;;;;;;29.60;52.07;98869.72;2111431;28;20064;-82
2023/07/17 03:31:37;;;;;;;6.82;4.72;;;;;;;29.60;51.87;98868.91;2112418;27;20052;-81
2023/07/17 03:32:38;;;;;;;12.27;4.97;;;;;;;29.59;51.92;98865.38;2111869;28;20048;-80
2023/07/17 03:33:40;;;;;;;15.38;6.13;;;;;;;29.59;51.94;98867.28;2109671;28;20054;-81
2023/07/17 03:34:41;;;;;;;18.63;6.38;;;;;;;29.57;52.08;98864.00;2113922;28;20043;-81
2023/07/17 03:35:43;;;;;;;9.80;5.53;;;;;;;29.53;51.95;98865.59;2112290;28;20047;-80
2023/07/17 03:36:45;;;;;;;13.75;5.35;;;;;;;29.55;52.13;98866.97;2104100;28;20056;-81
2023/07/17 03:37:46;;;;;;;11.90;4.90;;;;;;;29.54;52.02;98878.19;2110198;27;20050;-81
2023/07/17 03:38:48;;;;;;;7.07;4.22;;;;;;;29.50;52.12;98877.91;2111053;27;20047;-81
2023/07/17 03:39:49;;;;;;;12.57;5.05;;;;;;;29.50;52.30;98868.88;2110599;27;24897;-81
2023/07/17 03:40:50;;;;;;;11.73;4.93;;;;;;;29.53;52.25;98874.66;2111900;27;20089;-81
2023/07/17 03:41:53;;;;;;;8.10;4.47;;;;;;;29.54;51.70;98868.09;2111912;28;20043;-81
2023/07/17 03:42:55;;;;;;;7.32;4.55;;;;;;;29.58;51.75;98866.44;2105806;28;20142;-81
2023/07/17 03:43:58;;;;;;;7.63;5.03;;;;;;;29.60;51.52;98877.13;2103878;28;20052;-82
2023/07/17 03:45:00;;;;;;;10.77;5.40;;;;;;;29.65;51.49;98873.59;2104866;28;20058;-81
2023/07/17 03:46:01;;;;;;;9.80;5.07;;;;;;;29.59;51.64;98868.09;2109513;28;20096;-82
2023/07/17 03:47:02;;;;;;;11.88;4.45;;;;;;;29.65;51.47;98876.34;2109894;28;20055;-81
2023/07/17 03:48:04;;;;;;;8.10;5.15;;;;;;;29.64;51.89;98877.41;2108548;28;20052;-81
2023/07/17 03:49:06;;;;;;;8.57;5.05;;;;;;;29.62;51.76;98873.03;2103070;28;20387;-81
2023/07/17 03:50:07;;;;;;;8.98;4.70;;;;;;;29.62;51.76;98878.47;2109363;28;20046;-81
2023/07/17 03:51:09;;;;;;;8.80;4.18;;;;;;;29.62;51.71;98883.13;2109106;28;20048;-82
2023/07/17 03:52:10;;;;;;;9.88;4.43;;;;;;;29.62;51.71;98872.19;2104326;28;20044;-81
2023/07/17 03:53:11;;;;;;;10.75;5.22;;;;;;;29.58;51.87;98876.56;2101018;28;20121;-82
2023/07/17 03:54:12;;;;;;;13.38;4.97;;;;;;;29.56;51.53;98882.31;2102602;28;20048;-81
2023/07/17 03:55:14;;;;;;;10.95;5.18;;;;;;;29.54;51.63;98876.28;2099806;28;20052;-81
2023/07/17 03:56:14;;;;;;;13.32;5.78;;;;;;;29.52;51.57;98880.38;2099794;28;20459;-82
2023/07/17 03:57:18;;;;;;;11.60;5.47;;;;;;;29.50;52.04;98880.63;2102084;28;20174;-81
2023/07/17 03:58:19;;;;;;;9.70;4.75;;;;;;;29.53;51.46;98882.00;2109932;27;20055;-82
2023/07/17 03:59:23;;;;;;;7.00;4.75;;;;;;;29.55;51.48;98882.56;2109254;28;20039;-81
2023/07/17 04:00:24;;;;;;;9.45;4.57;;;;;;;29.54;51.53;98889.94;2107409;28;20043;-82
2023/07/17 04:01:26;;;;;;;7.93;4.55;;;;;;;29.57;51.68;98892.13;2103699;28;20044;-81
2023/07/17 04:02:27;;;;;;;9.68;4.65;;;;;;;29.54;51.62;98883.66;2099055;28;20047;-82
2023/07/17 04:03:29;;;;;;;12.63;5.28;;;;;;;29.57;51.15;98894.88;2107348;28;20039;-81
2023/07/17 04:04:30;;;;;;;11.45;5.00;;;;;;;29.56;51.48;98890.50;2100458;28;20046;-81
2023/07/17 04:05:32;;;;;;;9.40;5.82;;;;;;;29.56;51.34;98895.13;2100049;28;20094;-81
2023/07/17 04:06:33;;;;;;;8.75;4.75;;;;;;;29.61;51.54;98903.34;2099846;28;20051;-82
2023/07/17 04:07:35;;;;;;;7.63;4.90;;;;;;;29.60;51.33;98898.97;2099479;28;20071;-81
2023/07/17 04:08:36;;;;;;;8.60;5.15;;;;;;;29.55;51.40;98894.31;2101109;28;20123;-81
2023/07/17 04:09:38;;;;;;;6.85;4.68;;;;;;;29.60;51.07;98908.00;2101537;28;20457;-81
2023/07/17 04:10:39;;;;;;;8.52;4.60;;;;;;;29.59;51.19;98911.84;2098903;28;20040;-81
2023/07/17 04:11:40;;;;;;;10.27;4.93;;;;;;;29.59;50.98;98906.38;2101692;28;20101;-81
2023/07/17 04:12:43;;;;;;;6.30;4.93;;;;;;;29.57;50.58;98908.53;2098742;28;20379;-81
2023/07/17 04:13:45;;;;;;;7.32;4.97;;;;;;;29.55;50.47;98916.19;2101353;28;20497;-81
2023/07/17 04:14:46;;;;;;;8.30;4.63;;;;;;;29.52;50.41;98911.25;2100071;27;20547;-82
2023/07/17 04:15:49;;;;;;;11.90;5.05;;;;;;;29.52;50.55;98913.97;2105991;27;20039;-81
2023/07/17 04:16:51;;;;;;;11.15;5.28;;;;;;;29.52;50.35;98919.44;2101188;28;20123;-83
2023/07/17 04:17:52;;;;;;;8.80;4.70;;;;;;;29.53;50.76;98918.38;2101796;28;20123;-83
2023/07/17 04:18:54;;;;;;;7.63;4.53;;;;;;;29.57;50.56;98924.94;2108994;28;20043;-82
2023/07/17 04:19:54;;;;;;;8.88;4.28;;;;;;;29.54;50.49;98925.47;2109280;28;20126;-81
2023/07/17 04:20:56;;;;;;;7.72;3.78;;;;;;;29.53;50.44;98921.09;2107077;28;20421;-82
2023/07/17 04:21:57;;;;;;;9.00;4.60;;;;;;;29.52;50.17;98922.19;2107863;27;21548;-81
2023/07/17 04:22:59;;;;;;;7.50;4.68;;;;;;;29.51;50.06;98919.72;2098365;28;20052;-82
2023/07/17 04:24:00;;;;;;;12.45;5.88;;;;;;;29.53;49.82;98934.78;2101260;28;20048;-81
2023/07/17 04:25:03;;;;;;;15.07;4.50;;;;;;;29.53;49.70;98932.03;2102789;28;20051;-81
2023/07/17 04:26:04;;;;;;;11.52;5.53;;;;;;;29.55;50.04;98931.75;2105037;28;20051;-81
2023/07/17 04:27:06;;;;;;;6.78;4.88;;;;;;;29.52;50.10;98933.13;2101044;28;20064;-81
2023/07/17 04:28:08;;;;;;;11.35;4.72;;;;;;;29.51;50.12;98931.47;2101637;28;20122;-81
2023/07/17 04:29:10;;;;;;;8.85;4.97;;;;;;;29.56;49.97;98934.22;2105072;28;20130;-81
2023/07/17 04:30:11;;;;;;;12.30;4.97;;;;;;;29.55;49.54;98935.31;2107609;28;20080;-81
2023/07/17 04:31:13;;;;;;;11.23;4.28;;;;;;;29.55;50.13;98932.56;2106939;27;20092;-81
2023/07/17 04:32:14;;;;;;;7.63;4.35;;;;;;;29.56;49.81;98922.47;2107894;28;20127;-81
2023/07/17 04:33:16;;;;;;;15.55;5.32;;;;;;;29.57;50.21;98922.19;2107912;27;20058;-82
2023/07/17 04:34:18;;;;;;;9.50;4.45;;;;;;;29.55;49.47;98921.63;2109202;28;20617;-81
2023/07/17 04:35:19;;;;;;;7.32;4.85;;;;;;;29.54;48.77;98927.38;2110478;28;20063;-81
2023/07/17 04:36:20;;;;;;;12.18;5.82;;;;;;;29.54;48.97;98925.47;2108629;28;20044;-82
2023/07/17 04:37:21;;;;;;;9.13;4.40;;;;;;;29.52;49.24;98927.66;2105436;27;20055;-82
2023/07/17 04:38:23;;;;;;;9.38;4.75;;;;;;;29.52;48.77;98918.63;2108289;28;20085;-81
2023/07/17 04:39:24;;;;;;;13.70;5.00;;;;;;;29.49;48.61;98919.19;2108415;28;20543;-82
2023/07/17 04:40:26;;;;;;;7.22;4.85;;;;;;;29.52;49.16;98922.19;2109764;28;20047;-82
2023/07/17 04:41:27;;;;;;;9.77;4.78;;;;;;;29.47;49.54;98916.69;2107892;27;20140;-81
2023/07/17 04:42:29;;;;;;;8.13;4.95;;;;;;;29.53;49.32;98926.56;2108620;28;20477;-81
2023/07/17 04:43:31;;;;;;;8.88;5.78;;;;;;;29.54;49.42;98924.66;2107766;28;20040;-82
2023/07/17 04:44:33;;;;;;;9.98;4.75;;;;;;;29.54;49.26;98925.47;2108943;28;20047;-82
2023/07/17 04:45:36;;;;;;;7.35;4.18;;;;;;;29.54;49.04;98914.53;2110068;27;20376;-82
2023/07/17 04:46:38;;;;;;;9.30;4.05;;;;;;;29.53;49.06;98907.44;2109686;28;20046;-82
2023/07/17 04:47:39;;;;;;;11.32;4.78;;;;;;;29.52;49.05;98910.44;2110623;28;20506;-82
2023/07/17 04:48:41;;;;;;;9.20;4.55;;;;;;;29.55;49.31;98918.09;2110814;27;20071;-81